Time;durP1;ratioP1;P1;durP2;ratioP2;P2;SDS_P1;SDS_P2;PMS_P1;PMS_P2;Temp;Humidity;BMP_temperature;BMP_pressure;BME280_temperature;BME280_humidity;BME280_pressure;Samples;Min_cycle;Max_cycle;Signal;HPM_P1;HPM_P2
2021/01/24 00:00:18;;;;;;;0.60;0.50;;;3.20;99.90;;;3.86;100.00;-20787.25;5022903;28;20207;-65
2021/01/24 00:02:45;;;;;;;0.60;0.50;;;3.20;99.90;;;3.84;100.00;-20786.56;5009903;28;20697;-63
2021/01/24 00:05:14;;;;;;;0.60;0.50;;;3.20;99.90;;;3.87;100.00;-20787.53;4994299;28;20179;-64
2021/01/24 00:07:41;;;;;;;0.60;0.50;;;3.20;99.90;;;3.85;100.00;-20787.00;5011451;28;20187;-64
2021/01/24 00:10:12;;;;;;;0.60;0.50;;;3.20;99.90;;;3.95;100.00;-20789.50;5014027;28;20278;-67
2021/01/24 00:12:39;;;;;;;0.60;0.60;;;3.20;99.90;;;3.91;100.00;-20788.38;4994345;28;20576;-64
2021/01/24 00:15:07;;;;;;;0.60;0.50;;;3.20;99.90;;;3.96;100.00;-20789.91;4999884;28;20210;-64
2021/01/24 00:17:34;;;;;;;0.60;0.57;;;3.20;99.90;;;3.94;100.00;-20789.34;5013336;28;20207;-64
2021/01/24 00:20:03;;;;;;;0.60;0.50;;;3.20;99.90;;;3.85;100.00;-20787.00;5001667;28;20188;-64
2021/01/24 00:22:31;;;;;;;0.60;0.50;;;3.20;99.90;;;3.97;100.00;-20790.06;5000254;28;20293;-65
2021/01/24 00:24:58;;;;;;;0.60;0.60;;;3.20;99.90;;;3.93;100.00;-20788.94;5000869;28;20243;-63
2021/01/24 00:27:25;;;;;;;0.60;0.60;;;3.20;99.90;;;3.91;100.00;-20788.38;4993691;28;20415;-64
2021/01/24 00:29:52;;;;;;;0.60;0.50;;;3.20;99.90;;;3.97;100.00;-20790.19;5010134;28;20560;-65
2021/01/24 00:32:19;;;;;;;0.60;0.50;;;3.20;99.90;;;3.97;100.00;-20790.19;5011620;28;20487;-66
2021/01/24 00:34:46;;;;;;;0.60;0.50;;;3.20;99.90;;;3.86;100.00;-20787.13;5027229;28;20191;-63
2021/01/24 00:37:14;;;;;;;0.60;0.60;;;3.20;99.90;;;3.94;100.00;-20789.22;5012835;28;20492;-65
2021/01/24 00:39:41;;;;;;;0.60;0.50;;;3.20;99.90;;;3.80;100.00;-20785.59;5008358;28;20607;-64
2021/01/24 00:42:09;;;;;;;0.60;0.50;;;3.20;99.90;;;3.90;100.00;-20788.09;5012317;28;21015;-64
2021/01/24 00:44:36;;;;;;;0.60;0.60;;;3.20;99.90;;;3.80;100.00;-20785.59;5009443;28;20291;-65
2021/01/24 00:47:05;;;;;;;0.60;0.60;;;3.20;99.90;;;3.71;100.00;-20783.09;4997632;28;20199;-64
2021/01/24 00:49:33;;;;;;;0.60;0.50;;;3.20;99.90;;;3.68;100.00;-20782.25;5015603;28;20636;-65
2021/01/24 00:52:00;;;;;;;0.60;0.60;;;3.10;99.90;;;3.65;100.00;-20781.41;5015957;28;20190;-64
2021/01/24 00:54:28;;;;;;;0.60;0.60;;;3.10;99.90;;;3.71;100.00;-20782.94;5029162;28;20191;-64
2021/01/24 00:56:57;;;;;;;0.60;0.50;;;3.10;99.90;;;3.77;100.00;-20784.75;5017326;28;20929;-64
2021/01/24 00:59:24;;;;;;;0.60;0.60;;;3.10;99.90;;;3.85;100.00;-20787.00;5016579;28;20265;-64
2021/01/24 01:01:51;;;;;;;0.60;0.60;;;3.10;99.90;;;3.96;100.00;-20789.91;5030552;28;20187;-64
2021/01/24 01:04:18;;;;;;;0.60;0.60;;;3.10;99.90;;;3.93;100.00;-20788.94;5029658;28;20191;-64
2021/01/24 01:06:46;;;;;;;1.35;1.25;;;3.10;99.90;;;3.84;100.00;-20786.72;4993857;28;20191;-65
2021/01/24 01:09:12;;;;;;;0.60;0.60;;;3.10;99.90;;;3.85;100.00;-20786.84;5020942;28;20234;-65
2021/01/24 01:11:39;;;;;;;0.60;0.50;;;3.10;99.90;;;4.15;100.00;-20795.06;4997155;28;20270;-65
2021/01/24 01:14:07;;;;;;;0.60;0.50;;;3.10;99.90;;;4.06;100.00;-20792.69;4996925;28;20239;-65
2021/01/24 01:16:34;;;;;;;0.60;0.50;;;3.20;99.90;;;4.10;100.00;-20793.81;4997051;28;20258;-65
2021/01/24 01:19:01;;;;;;;0.60;0.50;;;3.20;99.90;;;4.24;100.00;-20797.59;5000137;28;20193;-65
2021/01/24 01:21:28;;;;;;;0.60;0.50;;;3.20;99.90;;;3.96;100.00;-20789.91;5014720;28;20520;-66
2021/01/24 01:23:56;;;;;;;0.60;0.50;;;3.10;99.90;;;4.02;100.00;-20791.44;5013779;28;20210;-65
2021/01/24 01:26:23;;;;;;;0.60;0.60;;;2.90;99.90;;;3.68;100.00;-20782.25;5016505;28;20212;-66
2021/01/24 01:28:49;;;;;;;0.60;0.50;;;2.60;99.90;;;3.54;100.00;-20778.34;5016326;28;20214;-65
2021/01/24 01:31:17;;;;;;;0.60;0.50;;;2.40;99.90;;;3.40;100.00;-20774.56;4997630;28;20204;-65
2021/01/24 01:33:44;;;;;;;0.60;0.50;;;2.30;99.90;;;3.21;100.00;-20769.41;5009310;28;20183;-65
2021/01/24 01:36:11;;;;;;;0.60;0.60;;;2.10;99.90;;;2.77;100.00;-20757.28;5016540;28;20214;-65
2021/01/24 01:38:38;;;;;;;0.70;0.50;;;1.80;99.90;;;2.57;100.00;-20751.84;5008489;28;20879;-65
2021/01/24 01:41:05;;;;;;;0.60;0.60;;;1.60;99.90;;;2.31;100.00;-20744.84;5014737;28;20226;-65
2021/01/24 01:43:34;;;;;;;0.70;0.65;;;1.50;99.90;;;2.33;100.00;-20745.41;5016724;28;20218;-65
2021/01/24 01:46:02;;;;;;;0.70;0.70;;;1.40;99.90;;;2.13;100.00;-20739.97;5013245;28;20219;-66
2021/01/24 01:48:30;;;;;;;0.60;0.60;;;1.30;99.90;;;2.07;100.00;-20738.28;5015927;28;20187;-66
2021/01/24 01:50:58;;;;;;;0.60;0.60;;;1.30;99.90;;;2.02;100.00;-20736.88;5004412;28;20184;-65
2021/01/24 01:53:26;;;;;;;0.70;0.50;;;1.20;99.90;;;2.13;100.00;-20739.81;5003330;28;20484;-65
2021/01/24 01:55:53;;;;;;;0.60;0.60;;;1.20;99.90;;;2.19;100.00;-20741.50;4996172;28;20183;-67
2021/01/24 01:58:20;;;;;;;0.70;0.60;;;1.10;99.90;;;1.96;100.00;-20735.06;5004899;28;20210;-65
2021/01/24 02:00:49;;;;;;;0.70;0.60;;;1.10;99.90;;;2.00;100.00;-20736.19;5015815;28;20191;-65
2021/01/24 02:03:34;;;;;;;0.60;0.50;;;1.10;99.90;;;1.87;100.00;-20732.84;5004894;28;20210;-65
2021/01/24 02:06:14;;;;;;;0.60;0.60;;;1.00;99.90;;;1.86;100.00;-20732.56;4996133;28;20183;-66
2021/01/24 02:08:49;;;;;;;0.60;0.60;;;1.00;99.90;;;1.87;100.00;-20732.69;5007221;28;20226;-67
2021/01/24 02:11:29;;;;;;;0.60;0.60;;;1.00;99.90;;;1.73;100.00;-20728.78;5014006;28;20658;-66
2021/01/24 02:14:07;;;;;;;0.60;0.60;;;1.00;99.90;;;1.77;100.00;-20730.06;5014712;28;20214;-65
2021/01/24 02:16:38;;;;;;;0.60;0.60;;;1.00;99.90;;;1.62;100.00;-20725.84;5015497;28;20241;-66
2021/01/24 02:19:16;;;;;;;0.60;0.50;;;0.90;99.90;;;1.65;100.00;-20726.69;5015068;28;20577;-66
2021/01/24 02:21:45;;;;;;;0.60;0.60;;;0.90;99.90;;;1.64;100.00;-20726.41;5011849;28;20217;-66
2021/01/24 02:24:15;;;;;;;0.60;0.50;;;0.90;99.90;;;1.65;100.00;-20726.69;5014390;28;20290;-66
2021/01/24 02:26:54;;;;;;;0.60;0.60;;;0.80;99.90;;;1.62;100.00;-20726.00;5004435;28;20648;-66
2021/01/24 02:29:31;;;;;;;0.60;0.60;;;0.80;99.90;;;1.58;100.00;-20724.75;5015623;28;20219;-66
2021/01/24 02:32:02;;;;;;;0.60;0.60;;;0.80;99.90;;;1.54;100.00;-20723.63;5013918;28;20267;-66
2021/01/24 02:34:35;;;;;;;0.60;0.60;;;0.80;99.90;;;1.55;100.00;-20724.03;5005509;28;20182;-65
2021/01/24 02:37:03;;;;;;;0.60;0.50;;;0.80;99.90;;;1.50;100.00;-20722.63;4994535;28;20222;-68
2021/01/24 02:39:32;;;;;;;0.60;0.60;;;0.70;99.90;;;1.44;100.00;-20721.09;5009226;28;20192;-65
2021/01/24 02:42:00;;;;;;;0.60;0.50;;;0.70;99.90;;;1.47;100.00;-20721.66;4995516;28;20544;-65
2021/01/24 02:44:29;;;;;;;1.65;1.55;;;0.70;99.90;;;1.53;100.00;-20723.47;4995487;28;20207;-66
2021/01/24 02:46:57;;;;;;;0.68;0.60;;;0.70;99.90;;;1.45;100.00;-20721.38;4995460;28;20272;-66
2021/01/24 02:49:29;;;;;;;0.60;0.50;;;0.70;99.90;;;1.45;100.00;-20721.25;5005188;28;20195;-65
2021/01/24 02:51:58;;;;;;;0.60;0.50;;;0.70;99.90;;;1.59;100.00;-20725.03;5013133;28;20199;-68
2021/01/24 02:54:26;;;;;;;0.60;0.50;;;0.70;99.90;;;1.56;100.00;-20724.19;5012625;28;20254;-67
2021/01/24 02:56:54;;;;;;;0.60;0.50;;;0.70;99.90;;;1.41;100.00;-20720.28;5014409;28;20183;-66
2021/01/24 02:59:22;;;;;;;0.60;0.60;;;0.70;99.90;;;1.51;100.00;-20722.78;5014196;28;20631;-67
2021/01/24 03:01:49;;;;;;;0.60;0.50;;;0.70;99.90;;;1.46;100.00;-20721.53;5014323;28;20255;-67
2021/01/24 03:04:16;;;;;;;0.60;0.50;;;0.60;99.90;;;1.39;100.00;-20719.72;5014483;28;20647;-68
2021/01/24 03:06:44;;;;;;;0.60;0.55;;;0.60;99.90;;;1.31;100.00;-20717.47;5013824;28;20171;-67
2021/01/24 03:09:12;;;;;;;0.60;0.50;;;0.60;99.90;;;1.40;100.00;-20719.84;4996128;28;20286;-68
2021/01/24 03:11:44;;;;;;;0.60;0.50;;;0.60;99.90;;;1.52;100.00;-20723.06;5029168;28;20175;-67
2021/01/24 03:14:17;;;;;;;0.60;0.60;;;0.60;99.90;;;1.46;100.00;-20721.53;5012258;28;20204;-67
2021/01/24 03:16:47;;;;;;;0.60;0.60;;;0.60;99.90;;;1.40;100.00;-20720.00;5013486;28;20186;-66
2021/01/24 03:19:20;;;;;;;0.60;0.50;;;0.60;99.90;;;1.42;100.00;-20720.53;5013968;28;20187;-68
2021/01/24 03:21:49;;;;;;;0.60;0.50;;;0.70;99.90;;;1.43;100.00;-20720.69;5029224;28;20583;-68
2021/01/24 03:24:19;;;;;;;0.60;0.52;;;0.60;99.90;;;1.39;100.00;-20719.72;4999460;28;20601;-69
2021/01/24 03:26:47;;;;;;;0.60;0.50;;;0.70;99.90;;;1.35;100.00;-20718.59;5013418;28;20205;-69
2021/01/24 03:29:14;;;;;;;0.60;0.60;;;0.60;99.90;;;1.36;100.00;-20718.88;5013085;28;20227;-69
2021/01/24 03:31:42;;;;;;;0.60;0.50;;;0.70;99.90;;;1.44;100.00;-20721.09;5029605;28;20202;-68
2021/01/24 03:34:18;;;;;;;1.25;1.15;;;0.60;99.90;;;1.44;100.00;-20721.09;5003949;28;20614;-70
2021/01/24 03:36:48;;;;;;;0.60;0.60;;;0.60;99.90;;;1.45;100.00;-20721.38;5027004;28;20187;-69
2021/01/24 03:39:15;;;;;;;0.60;0.50;;;0.60;99.90;;;1.36;100.00;-20718.88;5012362;28;20191;-71
2021/01/24 03:41:43;;;;;;;0.60;0.50;;;0.60;99.90;;;1.36;100.00;-20718.88;5013352;28;20185;-70
2021/01/24 03:44:10;;;;;;;0.60;0.50;;;0.60;99.90;;;1.39;100.00;-20719.72;5027885;28;20242;-68
2021/01/24 03:46:38;;;;;;;0.60;0.55;;;0.60;99.90;;;1.41;100.00;-20720.28;5013116;28;20613;-70
2021/01/24 03:49:06;;;;;;;0.60;0.50;;;0.60;99.90;;;1.43;100.00;-20720.69;5007043;28;20191;-69
2021/01/24 03:51:43;;;;;;;0.60;0.50;;;0.50;99.90;;;1.42;100.00;-20720.41;4996595;28;20686;-68
2021/01/24 03:54:11;;;;;;;0.60;0.60;;;0.60;99.90;;;1.32;100.00;-20717.75;5010911;28;20237;-69
2021/01/24 03:56:38;;;;;;;0.60;0.60;;;0.60;99.90;;;1.34;100.00;-20718.31;5011132;28;20211;-70
2021/01/24 03:59:05;;;;;;;0.60;0.50;;;0.60;99.90;;;1.28;100.00;-20716.63;5010386;28;20211;-69
2021/01/24 04:01:33;;;;;;;0.60;0.50;;;0.60;99.90;;;1.32;100.00;-20717.75;5024527;28;20179;-69
2021/01/24 04:04:00;;;;;;;0.60;0.50;;;0.60;99.90;;;1.31;100.00;-20717.47;5007583;28;20206;-68
2021/01/24 04:06:27;;;;;;;0.60;0.60;;;0.60;99.90;;;1.31;100.00;-20717.34;5013265;28;20198;-69
2021/01/24 04:08:54;;;;;;;0.60;0.50;;;0.60;99.90;;;1.34;100.00;-20718.31;4998513;28;20242;-68
2021/01/24 04:11:22;;;;;;;0.60;0.50;;;0.50;99.90;;;1.27;100.00;-20716.22;5013101;28;20188;-70
2021/01/24 04:13:52;;;;;;;0.60;0.50;;;0.50;99.90;;;1.17;100.00;-20713.56;5027300;28;20238;-69
2021/01/24 04:16:18;;;;;;;0.60;0.60;;;0.50;99.90;;;1.24;100.00;-20715.50;5013583;28;20217;-70
2021/01/24 04:18:45;;;;;;;0.60;0.50;;;0.50;99.90;;;1.27;100.00;-20716.34;5012456;28;20245;-70
2021/01/24 04:21:12;;;;;;;0.60;0.50;;;0.50;99.90;;;1.28;100.00;-20716.63;5026678;28;20274;-71
2021/01/24 04:23:39;;;;;;;0.60;0.50;;;0.50;99.90;;;1.27;100.00;-20716.22;5006458;28;20297;-71
2021/01/24 04:26:06;;;;;;;0.60;0.52;;;0.50;99.90;;;1.24;100.00;-20715.50;5013209;28;20183;-71
2021/01/24 04:28:34;;;;;;;0.60;0.50;;;0.50;99.90;;;1.21;100.00;-20714.69;4993572;28;20242;-71
2021/01/24 04:31:01;;;;;;;0.60;0.60;;;0.50;99.90;;;1.27;100.00;-20716.34;4993852;28;20184;-72
2021/01/24 04:33:29;;;;;;;0.60;0.50;;;0.50;99.90;;;1.31;100.00;-20717.47;5027854;28;20589;-71
2021/01/24 04:35:55;;;;;;;0.60;0.50;;;0.50;99.90;;;1.31;100.00;-20717.47;5011465;28;20215;-72
2021/01/24 04:38:22;;;;;;;0.60;0.50;;;0.50;99.90;;;1.22;100.00;-20714.97;5001778;28;20180;-71
2021/01/24 04:40:49;;;;;;;0.60;0.50;;;0.50;99.90;;;1.24;100.00;-20715.50;5008812;28;20194;-74
2021/01/24 04:43:16;;;;;;;0.60;0.60;;;0.50;99.90;;;1.22;100.00;-20714.97;5013052;28;20277;-73
2021/01/24 04:45:45;;;;;;;0.60;0.50;;;0.50;99.90;;;1.29;100.00;-20716.91;5027080;28;20504;-72
2021/01/24 04:48:12;;;;;;;0.60;0.50;;;0.50;99.90;;;1.20;100.00;-20714.41;5011974;28;20229;-72
2021/01/24 04:50:39;;;;;;;0.60;0.50;;;0.50;99.90;;;1.37;100.00;-20719.16;5002118;28;20567;-73
2021/01/24 04:53:07;;;;;;;0.60;0.50;;;0.50;99.90;;;1.32;100.00;-20717.75;5010623;28;20245;-73
2021/01/24 04:55:34;;;;;;;0.60;0.50;;;0.50;99.90;;;1.36;100.00;-20718.72;5007608;28;20184;-73
2021/01/24 04:58:02;;;;;;;0.60;0.60;;;0.50;99.90;;;1.36;100.00;-20718.88;4991018;28;20183;-73
2021/01/24 05:00:29;;;;;;;0.60;0.50;;;0.50;99.90;;;1.39;100.00;-20719.72;5004480;28;20615;-73
2021/01/24 05:02:57;;;;;;;0.60;0.60;;;0.50;99.90;;;1.35;100.00;-20718.44;5027362;28;20297;-73
2021/01/24 05:05:24;;;;;;;0.60;0.60;;;0.50;99.90;;;1.32;100.00;-20717.75;5011222;28;20669;-73
2021/01/24 05:07:54;;;;;;;0.60;0.50;;;0.50;99.90;;;1.41;100.00;-20720.28;5023160;28;20181;-74
2021/01/24 05:10:25;;;;;;;0.60;0.50;;;0.50;99.90;;;1.40;100.00;-20720.00;5001688;28;20233;-73
2021/01/24 05:12:53;;;;;;;0.60;0.50;;;0.50;99.90;;;1.35;100.00;-20718.59;5028113;28;20179;-73
2021/01/24 05:15:20;;;;;;;0.60;0.50;;;0.50;99.90;;;1.25;100.00;-20715.78;5027906;28;20206;-73
2021/01/24 05:17:52;;;;;;;0.60;0.50;;;0.50;99.90;;;1.39;100.00;-20719.72;5006662;28;20266;-74
2021/01/24 05:20:25;;;;;;;0.60;0.60;;;0.50;99.90;;;1.37;100.00;-20719.16;5001782;28;20219;-74
2021/01/24 05:22:54;;;;;;;0.60;0.50;;;0.50;99.90;;;1.31;100.00;-20717.34;4998906;28;20663;-74
2021/01/24 05:25:23;;;;;;;0.60;0.50;;;0.50;99.90;;;1.32;100.00;-20717.75;5021185;28;20197;-74
2021/01/24 05:27:50;;;;;;;0.60;0.52;;;0.50;99.90;;;1.30;100.00;-20717.19;5012899;28;20175;-74
2021/01/24 05:30:22;;;;;;;0.60;0.50;;;0.50;99.90;;;1.29;100.00;-20716.78;5002369;28;20211;-74
2021/01/24 05:32:53;;;;;;;0.60;0.50;;;0.50;99.90;;;1.34;100.00;-20718.31;4999301;28;20188;-74
2021/01/24 05:35:19;;;;;;;0.60;0.50;;;0.50;99.90;;;1.35;100.00;-20718.59;5017276;28;20636;-74
2021/01/24 05:37:47;;;;;;;0.60;0.60;;;0.50;99.90;;;1.43;100.00;-20720.69;5014470;28;20258;-74
2021/01/24 05:40:15;;;;;;;0.60;0.50;;;0.50;99.90;;;1.40;100.00;-20720.00;5009244;28;20269;-74
2021/01/24 05:42:44;;;;;;;0.60;0.50;;;0.50;99.90;;;1.23;100.00;-20715.22;5030359;28;20195;-74
2021/01/24 05:45:14;;;;;;;0.60;0.50;;;0.50;99.90;;;1.22;100.00;-20714.97;5014455;28;20616;-74
2021/01/24 05:47:43;;;;;;;0.60;0.50;;;0.50;99.90;;;1.43;100.00;-20720.81;5012776;28;20199;-74
2021/01/24 05:50:13;;;;;;;0.60;0.60;;;0.50;99.90;;;1.31;100.00;-20717.47;4996732;28;20727;-74
2021/01/24 05:52:41;;;;;;;0.60;0.50;;;0.50;99.90;;;1.38;100.00;-20719.44;5003340;28;20277;-74
2021/01/24 05:55:10;;;;;;;0.60;0.50;;;0.50;99.90;;;1.38;100.00;-20719.44;5014905;28;20604;-74
2021/01/24 05:57:39;;;;;;;0.60;0.50;;;0.50;99.90;;;1.37;100.00;-20719.16;4996804;28;20270;-74
2021/01/24 06:00:07;;;;;;;0.60;0.60;;;0.50;99.90;;;1.43;100.00;-20720.81;5005655;28;20239;-74
2021/01/24 06:02:36;;;;;;;0.60;0.60;;;0.50;99.90;;;1.44;100.00;-20720.97;5015568;28;20594;-74
2021/01/24 06:05:05;;;;;;;0.60;0.50;;;0.50;99.90;;;1.28;100.00;-20716.63;5015809;28;20218;-75
2021/01/24 06:07:34;;;;;;;0.60;0.50;;;0.50;99.90;;;1.29;100.00;-20716.91;5026846;28;20227;-75
2021/01/24 06:10:01;;;;;;;0.60;0.60;;;0.50;99.90;;;1.40;100.00;-20720.00;5015515;28;20250;-76
2021/01/24 06:12:30;;;;;;;0.60;0.50;;;0.50;99.90;;;1.33;100.00;-20718.03;5007831;28;20595;-76
2021/01/24 06:15:03;;;;;;;0.60;0.52;;;0.50;99.90;;;1.37;100.00;-20719.16;5008854;28;20228;-75
2021/01/24 06:17:37;;;;;;;0.60;0.60;;;0.50;99.90;;;1.27;100.00;-20716.22;5014451;28;20168;-76
2021/01/24 06:20:06;;;;;;;0.60;0.50;;;0.50;99.90;;;1.45;100.00;-20721.25;5011136;28;20260;-76
2021/01/24 06:22:42;;;;;;;0.60;0.50;;;0.50;99.90;;;1.50;100.00;-20722.50;5001088;28;20191;-76
2021/01/24 06:25:17;;;;;;;0.60;0.50;;;0.50;99.90;;;1.46;100.00;-20721.53;5013598;28;20652;-77
2021/01/24 06:27:53;;;;;;;0.60;0.50;;;0.50;99.90;;;1.45;100.00;-20721.25;5014411;28;20198;-75
2021/01/24 06:30:25;;;;;;;0.60;0.50;;;0.60;99.90;;;1.41;100.00;-20720.28;5013061;28;20236;-76
2021/01/24 06:32:52;;;;;;;0.60;0.50;;;0.50;99.90;;;1.39;100.00;-20719.72;5013631;28;20194;-77
2021/01/24 06:35:23;;;;;;;0.60;0.50;;;0.50;99.90;;;1.36;100.00;-20718.88;5002504;28;20180;-76
2021/01/24 06:37:59;;;;;;;0.60;0.50;;;0.50;99.90;;;1.32;100.00;-20717.75;5002487;28;20596;-76
2021/01/24 06:40:29;;;;;;;0.60;0.50;;;0.50;99.90;;;1.51;100.00;-20722.94;5013442;28;20225;-76
2021/01/24 06:43:00;;;;;;;0.60;0.60;;;0.50;99.90;;;1.52;100.00;-20723.06;5014122;28;20253;-76
2021/01/24 06:45:40;;;;;;;0.60;0.50;;;0.50;99.90;;;1.47;100.00;-20721.66;5004269;28;20235;-76
2021/01/24 06:48:08;;;;;;;0.60;0.50;;;0.50;99.90;;;1.45;100.00;-20721.38;4994634;28;20184;-76
2021/01/24 06:50:41;;;;;;;0.60;0.50;;;0.50;99.90;;;1.27;100.00;-20716.34;5006963;28;20265;-76
2021/01/24 06:53:10;;;;;;;0.60;0.50;;;0.50;99.90;;;1.48;100.00;-20721.94;5028833;28;20665;-76
2021/01/24 06:55:38;;;;;;;0.60;0.50;;;0.50;99.90;;;1.60;100.00;-20725.28;5015359;28;20191;-77
2021/01/24 06:58:30;;;;;;;0.60;0.60;;;0.50;99.90;;;1.48;100.00;-20722.09;5018287;28;20241;-76
2021/01/24 07:01:25;;;;;;;0.60;0.50;;;0.50;99.90;;;1.55;100.00;-20723.91;4999521;28;20242;-75
2021/01/24 07:04:40;;;;;;;0.60;0.50;;;0.50;99.90;;;1.37;100.00;-20719.00;5012278;28;20300;-76
2021/01/24 07:07:36;;;;;;;0.60;0.57;;;0.50;99.90;;;1.34;100.00;-20718.31;4951742;28;20720;-76
2021/01/24 07:10:31;;;;;;;0.60;0.50;;;0.50;99.90;;;1.35;100.00;-20718.59;5015687;28;20591;-76
2021/01/24 07:12:58;;;;;;;0.63;0.60;;;0.50;99.90;;;1.37;100.00;-20719.16;5019237;28;20629;-77
2021/01/24 07:15:27;;;;;;;0.60;0.50;;;0.50;99.90;;;1.41;100.00;-20720.28;5016714;28;20220;-78
2021/01/24 07:18:03;;;;;;;0.60;0.50;;;0.50;99.90;;;1.33;100.00;-20718.03;5006371;28;20237;-81
2021/01/24 07:20:32;;;;;;;0.60;0.60;;;0.50;99.90;;;1.48;100.00;-20721.94;5012948;28;20289;-80
2021/01/24 07:23:00;;;;;;;0.60;0.60;;;0.50;99.90;;;1.33;100.00;-20718.03;5005355;28;20282;-80
2021/01/24 07:25:27;;;;;;;0.60;0.50;;;0.50;99.90;;;1.57;100.00;-20724.47;5019495;28;20274;-81
2021/01/24 07:27:54;;;;;;;0.60;0.60;;;0.60;99.90;;;1.44;100.00;-20721.09;5007290;28;20223;-80
2021/01/24 07:30:26;;;;;;;0.60;0.50;;;0.60;99.90;;;1.54;100.00;-20723.63;5009343;28;20748;-80
2021/01/24 07:32:54;;;;;;;0.60;0.50;;;0.60;99.90;;;1.56;100.00;-20724.19;5011192;28;20187;-80
2021/01/24 07:35:22;;;;;;;0.60;0.60;;;0.60;99.90;;;1.61;100.00;-20725.56;5017323;28;20258;-79
2021/01/24 07:37:51;;;;;;;0.60;0.50;;;0.60;99.90;;;1.59;100.00;-20725.16;5016680;28;20199;-81
2021/01/24 07:40:20;;;;;;;0.60;0.50;;;0.60;99.90;;;1.52;100.00;-20723.19;5026829;28;20655;-80
2021/01/24 07:42:48;;;;;;;0.60;0.60;;;0.60;99.90;;;1.46;100.00;-20721.53;5027415;28;20666;-79
2021/01/24 07:45:16;;;;;;;0.60;0.50;;;0.60;99.90;;;1.58;100.00;-20724.75;5008081;28;20225;-78
2021/01/24 07:47:44;;;;;;;0.60;0.50;;;0.60;99.90;;;1.56;100.00;-20724.19;5025451;28;20199;-78
2021/01/24 07:50:12;;;;;;;0.60;0.50;;;0.60;99.90;;;1.50;100.00;-20722.63;5012574;28;20217;-76
2021/01/24 07:52:40;;;;;;;0.60;0.50;;;0.60;99.90;;;1.58;100.00;-20724.88;5022233;28;20188;-78
2021/01/24 07:55:10;;;;;;;0.60;0.60;;;0.70;99.90;;;1.63;100.00;-20726.13;5028940;28;20250;-78
2021/01/24 07:57:39;;;;;;;0.60;0.60;;;0.70;99.90;;;1.66;100.00;-20727.13;5017790;28;20207;-79
2021/01/24 08:00:08;;;;;;;0.60;0.60;;;0.70;99.90;;;1.66;100.00;-20726.97;5013250;28;20221;-79
2021/01/24 08:02:41;;;;;;;0.60;0.50;;;0.70;99.90;;;1.62;100.00;-20725.84;5023421;28;20573;-80
2021/01/24 08:05:12;;;;;;;0.60;0.50;;;0.70;99.90;;;1.73;100.00;-20728.78;5009905;28;20208;-79
2021/01/24 08:07:40;;;;;;;0.60;0.60;;;0.70;99.90;;;1.69;100.00;-20727.81;4999526;28;20656;-78
2021/01/24 08:10:08;;;;;;;0.60;0.50;;;0.70;99.90;;;1.67;100.00;-20727.25;5005846;28;20245;-79
2021/01/24 08:12:35;;;;;;;0.60;0.55;;;0.80;99.90;;;1.74;100.00;-20729.22;5026255;28;20668;-81
2021/01/24 08:15:04;;;;;;;0.60;0.50;;;0.80;99.90;;;1.85;100.00;-20732.28;5018678;28;20676;-80
2021/01/24 08:17:33;;;;;;;0.60;0.60;;;0.80;99.90;;;1.82;100.00;-20731.44;5024370;28;20183;-78
2021/01/24 08:20:03;;;;;;;0.60;0.60;;;0.90;99.90;;;1.83;100.00;-20731.72;5014901;28;20195;-77
2021/01/24 08:22:31;;;;;;;0.60;0.60;;;0.90;99.90;;;1.73;100.00;-20728.94;5027779;28;20202;-76
2021/01/24 08:25:00;;;;;;;0.60;0.60;;;0.90;99.90;;;1.84;100.00;-20732.00;5012105;28;20269;-76
2021/01/24 08:27:27;;;;;;;0.60;0.60;;;0.90;99.90;;;1.97;100.00;-20735.34;4995738;28;20209;-75
2021/01/24 08:29:55;;;;;;;0.60;0.50;;;1.00;99.90;;;1.83;100.00;-20731.72;4995036;28;20212;-73
2021/01/24 08:32:23;;;;;;;0.60;0.60;;;1.00;99.90;;;1.81;100.00;-20731.16;5015128;28;20199;-74
2021/01/24 08:34:50;;;;;;;0.60;0.50;;;1.00;99.90;;;1.94;100.00;-20734.78;5010508;28;20220;-73
2021/01/24 08:37:17;;;;;;;0.60;0.60;;;1.00;99.90;;;1.87;100.00;-20732.84;5010152;28;20191;-75
2021/01/24 08:39:46;;;;;;;0.60;0.60;;;1.10;99.90;;;1.81;100.00;-20731.16;5012150;28;20618;-76
2021/01/24 08:42:13;;;;;;;0.60;0.50;;;1.10;99.90;;;2.08;100.00;-20738.56;5016245;28;20215;-74
2021/01/24 08:44:58;;;;;;;0.60;0.50;;;1.10;99.90;;;2.15;100.00;-20740.53;4998218;28;20250;-76
2021/01/24 08:47:26;;;;;;;0.73;0.73;;;1.10;99.90;;;2.20;100.00;-20741.78;5012154;28;20191;-78
2021/01/24 08:50:06;;;;;;;0.60;0.50;;;1.20;99.90;;;2.24;100.00;-20742.91;5007122;28;20293;-77
2021/01/24 08:52:33;;;;;;;0.60;0.60;;;1.20;99.90;;;2.25;100.00;-20743.03;5012130;28;20174;-77
2021/01/24 08:55:02;;;;;;;0.60;0.50;;;1.20;99.90;;;2.26;100.00;-20743.31;5010860;28;20213;-76
2021/01/24 08:57:33;;;;;;;1.73;1.58;;;1.30;99.90;;;2.13;100.00;-20739.81;5028564;28;20222;-74
2021/01/24 09:00:04;;;;;;;0.60;0.50;;;1.20;99.90;;;2.31;100.00;-20744.84;5011113;28;20214;-74
2021/01/24 09:02:32;;;;;;;0.60;0.50;;;1.20;99.90;;;2.29;100.00;-20744.28;5012887;28;20175;-73
2021/01/24 09:05:03;;;;;;;1.23;1.13;;;1.30;99.90;;;2.33;100.00;-20745.41;4978849;28;20679;-73
2021/01/24 09:07:38;;;;;;;0.60;0.60;;;1.30;99.90;;;2.37;100.00;-20746.38;5010610;28;20195;-72
2021/01/24 09:10:24;;;;;;;0.60;0.50;;;1.30;99.90;;;2.29;100.00;-20744.16;5014428;28;20647;-73
2021/01/24 09:12:53;;;;;;;0.60;0.50;;;1.20;99.90;;;2.37;100.00;-20746.53;5013388;28;20544;-73
2021/01/24 09:15:22;;;;;;;0.70;0.65;;;1.30;99.90;;;2.38;100.00;-20746.66;5029890;28;20207;-74
2021/01/24 09:17:52;;;;;;;0.60;0.60;;;1.30;99.90;;;2.29;100.00;-20744.28;5015079;28;20243;-73
2021/01/24 09:20:21;;;;;;;0.60;0.50;;;1.30;99.90;;;2.31;100.00;-20744.84;5023325;28;20201;-74
2021/01/24 09:22:48;;;;;;;10.30;1.17;;;1.30;99.90;;;2.27;100.00;-20743.72;5023504;28;20200;-75
2021/01/24 09:25:18;;;;;;;0.60;0.60;;;1.30;99.90;;;2.39;100.00;-20746.94;5014112;28;20612;-76
2021/01/24 09:27:47;;;;;;;0.60;0.50;;;1.30;99.90;;;2.44;100.00;-20748.34;5011843;28;20203;-75
2021/01/24 09:30:17;;;;;;;0.70;0.63;;;1.30;99.90;;;2.54;100.00;-20751.00;5013833;28;20234;-77
2021/01/24 09:32:44;;;;;;;0.60;0.50;;;1.40;99.90;;;2.50;100.00;-20749.88;5016432;28;20195;-77
2021/01/24 09:35:13;;;;;;;0.60;0.50;;;1.40;99.90;;;2.44;100.00;-20748.34;4997033;28;20206;-76
2021/01/24 09:37:41;;;;;;;0.60;0.50;;;1.40;99.90;;;2.33;100.00;-20745.41;5016105;28;20687;-76
2021/01/24 09:40:09;;;;;;;0.60;0.50;;;1.40;99.90;;;2.60;100.00;-20752.66;5004355;28;20278;-76
2021/01/24 09:42:37;;;;;;;0.60;0.50;;;1.40;99.90;;;2.41;100.00;-20747.66;5019038;28;20606;-76
2021/01/24 09:45:07;;;;;;;0.60;0.50;;;1.40;99.90;;;2.56;100.00;-20751.56;5026753;28;20679;-75
2021/01/24 09:47:35;;;;;;;0.60;0.50;;;1.40;99.90;;;2.42;100.00;-20747.94;5020902;28;20290;-76
2021/01/24 09:50:02;;;;;;;0.60;0.60;;;1.40;99.90;;;2.61;100.00;-20752.94;5024546;28;20199;-76
2021/01/24 09:52:30;;;;;;;0.60;0.60;;;1.40;99.90;;;2.60;100.00;-20752.66;5003120;28;20274;-77
2021/01/24 09:54:56;;;;;;;0.60;0.50;;;1.40;99.90;;;2.41;100.00;-20747.50;5007880;28;20191;-76
2021/01/24 09:57:23;;;;;;;0.60;0.60;;;1.40;99.90;;;2.65;100.00;-20754.06;5014823;28;20199;-76
2021/01/24 09:59:50;;;;;;;0.60;0.50;;;1.50;99.90;;;2.54;100.00;-20751.13;5006465;28;20215;-76
2021/01/24 10:02:18;;;;;;;0.82;0.80;;;1.50;99.90;;;2.59;100.00;-20752.53;5025114;28;20238;-75
2021/01/24 10:04:45;;;;;;;1.33;1.23;;;1.50;99.90;;;2.58;100.00;-20752.25;5013854;28;20207;-75
2021/01/24 10:07:12;;;;;;;0.60;0.50;;;1.50;99.90;;;2.75;100.00;-20756.84;5014172;28;20206;-74
2021/01/24 10:09:39;;;;;;;0.60;0.50;;;1.50;99.90;;;2.72;100.00;-20756.03;5011730;28;20648;-75
2021/01/24 10:12:07;;;;;;;0.60;0.50;;;1.50;99.90;;;2.64;100.00;-20753.78;5013985;28;20222;-74
2021/01/24 10:14:34;;;;;;;0.60;0.50;;;1.60;99.90;;;2.68;100.00;-20754.91;5014216;28;20261;-74
2021/01/24 10:17:01;;;;;;;0.60;0.60;;;1.50;99.90;;;2.70;100.00;-20755.47;5029003;28;20614;-73
2021/01/24 10:19:29;;;;;;;0.60;0.50;;;1.60;99.90;;;2.67;100.00;-20754.63;5012970;28;20199;-73
2021/01/24 10:21:56;;;;;;;0.60;0.60;;;1.60;99.90;;;2.73;100.00;-20756.31;5029847;28;20595;-74
2021/01/24 10:24:23;;;;;;;0.60;0.60;;;1.60;99.90;;;2.91;100.00;-20761.19;5013219;28;20606;-73
2021/01/24 10:26:50;;;;;;;0.60;0.60;;;1.60;99.90;;;2.79;100.00;-20757.97;5014041;28;20662;-73
2021/01/24 10:29:17;;;;;;;0.60;0.60;;;1.60;99.90;;;2.97;100.00;-20762.72;5023179;28;20223;-73